FDX1505 KLAX-KSAN
Flight info
| Callsign | FDX1505 |
|---|---|
| Flight time | 0h 33m |
| Altitude | 13000 |
| Route | LAXX1 MZB |
| Aircraft | MD11/H-SDE1E2E3FGHIJ2J3J4J5M1RWXY/LB1D1 |
Departure
| Time | 2026-04-26 01:31 |
|---|---|
| Airport | Los Angeles International Airport (KLAX) |
Arrival
| Time | 2026-04-26 02:04 |
|---|---|
| Airport | San Diego International Airport (KSAN) |
| Time | Latitude | Longitude | Altitude | Speed | Heading |
|---|---|---|---|---|---|
| 2026-04-26 01:10 | 33.93541 | -118.38041 | 133 ft | 0 kts | 83° |
| 2026-04-26 01:20 | 33.93540 | -118.38046 | 133 ft | 3 kts | 84° |
| 2026-04-26 01:20 | 33.93540 | -118.38077 | 133 ft | 4 kts | 91° |
| 2026-04-26 01:20 | 33.93540 | -118.38103 | 133 ft | 4 kts | 65° |
| 2026-04-26 01:21 | 33.93529 | -118.38120 | 129 ft | 4 kts | 17° |
| 2026-04-26 01:21 | 33.93504 | -118.38125 | 133 ft | 2 kts | 358° |
| 2026-04-26 01:21 | 33.93502 | -118.38125 | 133 ft | 0 kts | 357° |
| 2026-04-26 01:24 | 33.93506 | -118.38125 | 133 ft | 3 kts | 357° |
| 2026-04-26 01:24 | 33.93559 | -118.38126 | 129 ft | 13 kts | 0° |
| 2026-04-26 01:24 | 33.93615 | -118.38176 | 133 ft | 9 kts | 286° |
| 2026-04-26 01:24 | 33.93623 | -118.38249 | 133 ft | 7 kts | 290° |
| 2026-04-26 01:25 | 33.93636 | -118.38270 | 130 ft | 2 kts | 314° |
| 2026-04-26 01:25 | 33.93645 | -118.38274 | 130 ft | 0 kts | 342° |
| 2026-04-26 01:29 | 33.93669 | -118.38284 | 127 ft | 10 kts | 338° |
| 2026-04-26 01:30 | 33.93727 | -118.38357 | 133 ft | 7 kts | 274° |
| 2026-04-26 01:30 | 33.93722 | -118.38434 | 130 ft | 35 kts | 265° |
| 2026-04-26 01:30 | 33.93648 | -118.39124 | 129 ft | 128 kts | 263° |
| 2026-04-26 01:30 | 33.93520 | -118.40447 | 371 ft | 174 kts | 264° |
| 2026-04-26 01:31 | 33.93389 | -118.41903 | 1409 ft | 175 kts | 262° |
| 2026-04-26 01:31 | 33.93167 | -118.43423 | 2271 ft | 195 kts | 259° |
| 2026-04-26 01:31 | 33.92850 | -118.45054 | 3285 ft | 208 kts | 256° |
| 2026-04-26 01:31 | 33.92338 | -118.46704 | 4503 ft | 216 kts | 240° |
| 2026-04-26 01:32 | 33.91399 | -118.48220 | 5438 ft | 232 kts | 232° |
| 2026-04-26 01:32 | 33.90445 | -118.49703 | 6742 ft | 219 kts | 240° |
| 2026-04-26 01:32 | 33.89810 | -118.51386 | 7590 ft | 216 kts | 249° |
| 2026-04-26 01:32 | 33.89278 | -118.53002 | 8848 ft | 206 kts | 249° |
| 2026-04-26 01:33 | 33.88758 | -118.54770 | 8992 ft | 247 kts | 253° |
| 2026-04-26 01:33 | 33.88305 | -118.56977 | 8854 ft | 280 kts | 253° |
| 2026-04-26 01:33 | 33.87465 | -118.58937 | 10265 ft | 265 kts | 231° |
| 2026-04-26 01:33 | 33.86000 | -118.60281 | 11098 ft | 271 kts | 206° |
| 2026-04-26 01:34 | 33.84160 | -118.60876 | 11894 ft | 278 kts | 194° |
| 2026-04-26 01:34 | 33.82202 | -118.61222 | 12026 ft | 291 kts | 192° |
| 2026-04-26 01:34 | 33.80239 | -118.61506 | 11990 ft | 283 kts | 192° |
| 2026-04-26 01:34 | 33.78282 | -118.61779 | 11994 ft | 283 kts | 192° |
| 2026-04-26 01:35 | 33.76329 | -118.62049 | 12003 ft | 283 kts | 192° |
| 2026-04-26 01:35 | 33.74374 | -118.62319 | 12001 ft | 283 kts | 192° |
| 2026-04-26 01:35 | 33.72421 | -118.62588 | 11994 ft | 283 kts | 192° |
| 2026-04-26 01:35 | 33.70466 | -118.62855 | 11989 ft | 282 kts | 190° |
| 2026-04-26 01:36 | 33.69152 | -118.62838 | 11995 ft | 292 kts | 176° |
| 2026-04-26 01:36 | 33.67148 | -118.61947 | 12012 ft | 321 kts | 153° |
| 2026-04-26 01:36 | 33.65566 | -118.60149 | 12000 ft | 312 kts | 128° |
| 2026-04-26 01:37 | 33.64440 | -118.54152 | 12013 ft | 326 kts | 94° |
| 2026-04-26 01:37 | 33.64366 | -118.51398 | 12018 ft | 341 kts | 94° |
| 2026-04-26 01:37 | 33.64293 | -118.48424 | 12022 ft | 372 kts | 94° |
| 2026-04-26 01:37 | 33.64113 | -118.45205 | 12021 ft | 399 kts | 98° |
| 2026-04-26 01:38 | 33.63852 | -118.43035 | 12009 ft | 394 kts | 103° |
| 2026-04-26 01:38 | 33.63249 | -118.39832 | 12011 ft | 393 kts | 108° |
| 2026-04-26 01:38 | 33.62459 | -118.36703 | 12007 ft | 392 kts | 111° |
| 2026-04-26 01:38 | 33.61556 | -118.33628 | 12011 ft | 390 kts | 114° |
| 2026-04-26 01:39 | 33.60593 | -118.30588 | 12007 ft | 390 kts | 115° |
| 2026-04-26 01:39 | 33.59603 | -118.27569 | 12011 ft | 389 kts | 115° |
| 2026-04-26 01:39 | 33.58600 | -118.24555 | 12008 ft | 389 kts | 115° |
| 2026-04-26 01:39 | 33.57594 | -118.21543 | 11994 ft | 389 kts | 115° |
| 2026-04-26 01:40 | 33.56589 | -118.18537 | 12000 ft | 389 kts | 115° |
| 2026-04-26 01:40 | 33.55583 | -118.15528 | 12000 ft | 389 kts | 115° |
| 2026-04-26 01:40 | 33.54574 | -118.12515 | 12366 ft | 399 kts | 115° |
| 2026-04-26 01:40 | 33.53556 | -118.09468 | 12754 ft | 394 kts | 115° |
| 2026-04-26 01:41 | 33.52533 | -118.06413 | 12972 ft | 397 kts | 116° |
| 2026-04-26 01:41 | 33.51509 | -118.03340 | 13001 ft | 397 kts | 116° |
| 2026-04-26 01:41 | 33.50492 | -118.00258 | 13009 ft | 398 kts | 115° |
| 2026-04-26 01:41 | 33.49478 | -117.97172 | 13007 ft | 398 kts | 115° |
| 2026-04-26 01:42 | 33.48466 | -117.94084 | 13008 ft | 398 kts | 115° |
| 2026-04-26 01:42 | 33.47453 | -117.90997 | 13007 ft | 398 kts | 115° |
| 2026-04-26 01:42 | 33.46439 | -117.87914 | 13009 ft | 397 kts | 117° |
| 2026-04-26 01:42 | 33.45208 | -117.84972 | 13009 ft | 394 kts | 124° |
| 2026-04-26 01:43 | 33.43798 | -117.82219 | 12994 ft | 393 kts | 127° |
| 2026-04-26 01:43 | 33.42340 | -117.79466 | 13005 ft | 391 kts | 127° |
| 2026-04-26 01:43 | 33.40912 | -117.76704 | 13014 ft | 391 kts | 126° |
| 2026-04-26 01:43 | 33.39510 | -117.73903 | 13011 ft | 392 kts | 125° |
| 2026-04-26 01:44 | 33.38138 | -117.71089 | 13017 ft | 392 kts | 124° |
| 2026-04-26 01:44 | 33.36780 | -117.68259 | 13017 ft | 392 kts | 124° |
| 2026-04-26 01:44 | 33.35433 | -117.65426 | 13018 ft | 392 kts | 124° |
| 2026-04-26 01:44 | 33.34090 | -117.62592 | 13017 ft | 392 kts | 124° |
| 2026-04-26 01:45 | 33.32746 | -117.59754 | 13019 ft | 392 kts | 123° |
| 2026-04-26 01:45 | 33.31403 | -117.56919 | 13020 ft | 392 kts | 123° |
| 2026-04-26 01:45 | 33.30059 | -117.54082 | 13019 ft | 392 kts | 124° |
| 2026-04-26 01:45 | 33.28731 | -117.51282 | 13019 ft | 392 kts | 124° |
| 2026-04-26 01:46 | 33.27387 | -117.48450 | 13017 ft | 391 kts | 124° |
| 2026-04-26 01:46 | 33.26051 | -117.45633 | 13015 ft | 389 kts | 125° |
| 2026-04-26 01:46 | 33.24605 | -117.42936 | 13013 ft | 381 kts | 136° |
| 2026-04-26 01:46 | 33.22629 | -117.40935 | 13018 ft | 367 kts | 156° |
| 2026-04-26 01:47 | 33.20330 | -117.39698 | 13022 ft | 361 kts | 166° |
| 2026-04-26 01:47 | 33.17962 | -117.38776 | 13018 ft | 351 kts | 168° |
| 2026-04-26 01:47 | 33.15718 | -117.37951 | 13012 ft | 325 kts | 169° |
| 2026-04-26 01:47 | 33.13670 | -117.37177 | 13019 ft | 301 kts | 168° |
| 2026-04-26 01:48 | 33.11753 | -117.36425 | 13022 ft | 282 kts | 168° |
| 2026-04-26 01:48 | 33.09878 | -117.35682 | 13026 ft | 282 kts | 168° |
| 2026-04-26 01:48 | 33.08015 | -117.34931 | 12978 ft | 282 kts | 168° |
| 2026-04-26 01:48 | 33.06167 | -117.34176 | 12421 ft | 281 kts | 167° |
| 2026-04-26 01:49 | 33.04328 | -117.33418 | 11727 ft | 281 kts | 167° |
| 2026-04-26 01:49 | 33.02492 | -117.32627 | 11194 ft | 281 kts | 164° |
| 2026-04-26 01:49 | 33.00669 | -117.31797 | 10639 ft | 280 kts | 166° |
| 2026-04-26 01:49 | 32.98831 | -117.31043 | 10123 ft | 279 kts | 166° |
| 2026-04-26 01:50 | 32.96993 | -117.30302 | 9582 ft | 279 kts | 166° |
| 2026-04-26 01:50 | 32.95161 | -117.29559 | 9059 ft | 278 kts | 165° |
| 2026-04-26 01:50 | 32.93362 | -117.28820 | 8560 ft | 276 kts | 165° |
| 2026-04-26 01:50 | 32.91546 | -117.28080 | 8061 ft | 276 kts | 165° |
| 2026-04-26 01:51 | 32.89735 | -117.27354 | 7586 ft | 273 kts | 164° |
| 2026-04-26 01:51 | 32.88087 | -117.26218 | 7106 ft | 277 kts | 138° |
| 2026-04-26 01:51 | 32.87035 | -117.24328 | 6746 ft | 277 kts | 111° |
| 2026-04-26 01:51 | 32.86555 | -117.22120 | 6423 ft | 274 kts | 102° |
| 2026-04-26 01:52 | 32.86212 | -117.19975 | 6070 ft | 253 kts | 101° |
| 2026-04-26 01:52 | 32.85910 | -117.18035 | 5975 ft | 226 kts | 101° |
| 2026-04-26 01:52 | 32.85629 | -117.16209 | 5992 ft | 221 kts | 101° |
| 2026-04-26 01:52 | 32.85371 | -117.14480 | 5945 ft | 201 kts | 101° |
| 2026-04-26 01:53 | 32.85139 | -117.12920 | 5964 ft | 193 kts | 101° |
| 2026-04-26 01:53 | 32.84908 | -117.11358 | 5983 ft | 192 kts | 101° |
| 2026-04-26 01:53 | 32.84682 | -117.09797 | 5974 ft | 192 kts | 101° |
| 2026-04-26 01:53 | 32.84460 | -117.08233 | 5989 ft | 193 kts | 101° |
| 2026-04-26 01:54 | 32.84234 | -117.06668 | 5956 ft | 191 kts | 101° |
| 2026-04-26 01:54 | 32.84006 | -117.05092 | 6001 ft | 202 kts | 101° |
| 2026-04-26 01:54 | 32.83747 | -117.03301 | 6007 ft | 236 kts | 101° |
| 2026-04-26 01:54 | 32.83457 | -117.01349 | 5996 ft | 241 kts | 101° |
| 2026-04-26 01:55 | 32.83159 | -116.99384 | 5982 ft | 242 kts | 101° |
| 2026-04-26 01:55 | 32.82863 | -116.97410 | 5985 ft | 243 kts | 101° |
| 2026-04-26 01:55 | 32.82575 | -116.95437 | 5956 ft | 240 kts | 101° |
| 2026-04-26 01:55 | 32.82293 | -116.93520 | 5512 ft | 233 kts | 101° |
| 2026-04-26 01:56 | 32.82008 | -116.91618 | 5149 ft | 239 kts | 101° |
| 2026-04-26 01:56 | 32.81611 | -116.89728 | 4979 ft | 235 kts | 118° |
| 2026-04-26 01:56 | 32.80577 | -116.88299 | 4972 ft | 228 kts | 151° |
| 2026-04-26 01:56 | 32.79132 | -116.87723 | 4709 ft | 213 kts | 182° |
| 2026-04-26 01:57 | 32.77661 | -116.87872 | 4351 ft | 217 kts | 191° |
| 2026-04-26 01:57 | 32.76167 | -116.88135 | 3977 ft | 215 kts | 191° |
| 2026-04-26 01:57 | 32.74697 | -116.88391 | 3804 ft | 213 kts | 191° |
| 2026-04-26 01:57 | 32.73244 | -116.88639 | 3800 ft | 214 kts | 192° |
| 2026-04-26 01:58 | 32.71775 | -116.88891 | 3781 ft | 214 kts | 191° |
| 2026-04-26 01:58 | 32.70307 | -116.89149 | 3776 ft | 212 kts | 194° |
| 2026-04-26 01:58 | 32.69008 | -116.89908 | 3769 ft | 208 kts | 226° |
| 2026-04-26 01:58 | 32.68295 | -116.91371 | 3776 ft | 207 kts | 257° |
| 2026-04-26 01:59 | 32.68333 | -116.93069 | 3791 ft | 209 kts | 279° |
| 2026-04-26 01:59 | 32.68612 | -116.94763 | 3795 ft | 202 kts | 279° |
| 2026-04-26 01:59 | 32.68851 | -116.96294 | 3737 ft | 181 kts | 277° |
| 2026-04-26 01:59 | 32.69032 | -116.97756 | 3799 ft | 178 kts | 275° |
| 2026-04-26 02:00 | 32.69178 | -116.99212 | 3768 ft | 178 kts | 274° |
| 2026-04-26 02:00 | 32.69302 | -117.00678 | 3787 ft | 179 kts | 273° |
| 2026-04-26 02:00 | 32.69404 | -117.02140 | 3784 ft | 173 kts | 272° |
| 2026-04-26 02:00 | 32.69519 | -117.03535 | 3786 ft | 177 kts | 279° |
| 2026-04-26 02:01 | 32.69844 | -117.04950 | 3793 ft | 180 kts | 284° |
| 2026-04-26 02:01 | 32.70211 | -117.06375 | 3784 ft | 181 kts | 284° |
| 2026-04-26 02:01 | 32.70570 | -117.07779 | 3750 ft | 169 kts | 284° |
| 2026-04-26 02:01 | 32.70897 | -117.09071 | 3762 ft | 162 kts | 284° |
| 2026-04-26 02:02 | 32.71212 | -117.10364 | 3536 ft | 161 kts | 279° |
| 2026-04-26 02:02 | 32.71505 | -117.11648 | 2971 ft | 157 kts | 279° |
| 2026-04-26 02:02 | 32.71777 | -117.12905 | 2254 ft | 158 kts | 279° |
| 2026-04-26 02:02 | 32.72161 | -117.14107 | 1372 ft | 152 kts | 291° |
| 2026-04-26 02:03 | 32.72456 | -117.15280 | 744 ft | 146 kts | 283° |
| 2026-04-26 02:03 | 32.72738 | -117.16378 | 404 ft | 148 kts | 284° |
| 2026-04-26 02:03 | 32.73042 | -117.17669 | 177 ft | 166 kts | 287° |
| 2026-04-26 02:03 | 32.73318 | -117.18809 | 31 ft | 116 kts | 285° |
| 2026-04-26 02:04 | 32.73450 | -117.19354 | 33 ft | 25 kts | 281° |
| 2026-04-26 02:04 | 32.73432 | -117.19455 | 32 ft | 1 kts | 241° |
| 2026-04-26 02:04 | 32.73431 | -117.19456 | 32 ft | 0 kts | 235° |
| 2026-04-26 02:05 | 32.73422 | -117.19470 | 34 ft | 0 kts | 234° |
| 2026-04-26 02:06 | 32.73402 | -117.19537 | 35 ft | 28 kts | 263° |
| 2026-04-26 02:06 | 32.73453 | -117.19789 | 34 ft | 26 kts | 287° |
| 2026-04-26 02:06 | 32.73484 | -117.19919 | 34 ft | 13 kts | 286° |
| 2026-04-26 02:06 | 32.73509 | -117.20018 | 33 ft | 15 kts | 283° |
| 2026-04-26 02:07 | 32.73548 | -117.20180 | 33 ft | 27 kts | 286° |
| 2026-04-26 02:07 | 32.73600 | -117.20418 | 26 ft | 25 kts | 278° |
| 2026-04-26 02:07 | 32.73600 | -117.20596 | 29 ft | 15 kts | 259° |
| 2026-04-26 02:07 | 32.73527 | -117.20680 | 28 ft | 33 kts | 201° |
| 2026-04-26 02:08 | 32.73439 | -117.20707 | 28 ft | 4 kts | 212° |